Pago Pago, AS

5:15 PM SST on August 22, 2014 (GMT -1100)
Kona International At Keahole | Change Station
CLOSE
Current Station
Airport
Location: Keahole Point,
Elevation: 43 ft
Nearby Weather Stations

Elev 43 ft 19.74 °N, 156.05 °W | Updated 22 minutes ago

Scattered Clouds
Scattered Clouds
84 °F
Feels Like 88 °F
N
8
Wind Variable Wind from SW

Today
High -- | Low -- °F
--% Chance of Precip.
Yesterday
High -- | Low -- °F
Precip. -- in
6:34 AM 6:17 PM
Waning Crescent, 5% visible
Pressure 29.90 in
Visibility 10.0 miles
Clouds Scattered Clouds 5500 ft
Heat Index 88 °F
Dew Point 69 °F
Humidity 61%
Rainfall 0.00 in
Snow Depth Not available.
UV 0 out of 12
Pollen Not available.
Air Quality Not available.
Flu Activity Not available.
METAR PHKO 230353Z 22007KT 10SM SCT055 29/21 A2990 RMK AO2 SLP125 T02890206

More Conditions Fewer Conditions

Pressure 29.90 in
Visibility 10.0 miles
Clouds Scattered Clouds 5500 ft
Heat Index 88 °F
Dew Point 69 °F
Humidity 61%
Rainfall 0.00 in
Snow Depth Not available.
UV 0 out of 12
Pollen Not available.
Air Quality Not available.
Flu Activity Not available.
METAR PHKO 230353Z 22007KT 10SM SCT055 29/21 A2990 RMK AO2 SLP125 T02890206

More Conditions Fewer Conditions

10-Day Weather Forecast

Almanac

Astronomy

Aug. 22, 2014 Rise Set
Actual Time 6:34 AM SST 6:17 PM SST
Civil Twilight 6:12 AM SST 6:39 PM SST
Nautical Twilight 5:47 AM SST 7:04 PM SST
Astronomical Twilight 5:22 AM SST 7:29 PM SST
Moon 4:29 AM SST (8/22) 4:18 PM SST (8/22)
Length of Visible Light 12h 26m
Length of Day
11h 43m
Tomorrow will be 0m 43s longer.
Waning Crescent, 5% of the Moon is Illuminated
Aug 23
Waning Crescent
Aug 25
New
Sep 2
First Quarter
Sep 8
Full
Sep 15
Last Quarter

Community

WunderPhotos

Upload Photos

1,746,358 photos uploaded!

WunderBlogs® & News

By Dr. Jeff Masters
Director of Meteorology, Weather Underground
By Kari Strenfel
Meteorologist, Weather Underground
By Christopher C. Burt
Weather Historian, Weather Underground
August 23, 2014
August 22, 2014
August 22, 2014

Nearby

Snow Depth

Station Depth Elevation
No new snow has been reported.

Earthquake Activity

City Distance Mag. Time & Date
No recent earthquake activity has been reported nearby.
Minimum magnitude displayed is 2.5.

Coastal Water Temperatures

Place Temperature
No Stations Reporting

Nearby Weather Stations